sensor_id;sensor_type;location;lat;lon;timestamp;P1;durP1;ratioP1;P2;durP2;ratioP2
58731;SDS011;44508;44.626;21.182;2023-03-01T00:01:49;45.78;;;31.05;;
58731;SDS011;44508;44.626;21.182;2023-03-01T00:04:15;46.53;;;29.05;;
58731;SDS011;44508;44.626;21.182;2023-03-01T00:06:42;48.88;;;29.85;;
58731;SDS011;44508;44.626;21.182;2023-03-01T00:09:11;44.47;;;29.75;;
58731;SDS011;44508;44.626;21.182;2023-03-01T00:11:37;43.95;;;30.20;;
58731;SDS011;44508;44.626;21.182;2023-03-01T00:14:03;62.50;;;38.17;;
58731;SDS011;44508;44.626;21.182;2023-03-01T00:16:33;55.35;;;36.47;;
58731;SDS011;44508;44.626;21.182;2023-03-01T00:19:00;65.43;;;42.10;;
58731;SDS011;44508;44.626;21.182;2023-03-01T00:21:26;90.22;;;55.85;;
58731;SDS011;44508;44.626;21.182;2023-03-01T00:23:52;98.75;;;58.13;;
58731;SDS011;44508;44.626;21.182;2023-03-01T00:26:19;63.80;;;38.88;;
58731;SDS011;44508;44.626;21.182;2023-03-01T00:28:46;44.58;;;29.52;;
58731;SDS011;44508;44.626;21.182;2023-03-01T00:31:19;35.70;;;24.00;;
58731;SDS011;44508;44.626;21.182;2023-03-01T00:33:46;32.85;;;20.40;;
58731;SDS011;44508;44.626;21.182;2023-03-01T00:36:13;25.17;;;17.48;;
58731;SDS011;44508;44.626;21.182;2023-03-01T00:38:40;26.88;;;18.00;;
58731;SDS011;44508;44.626;21.182;2023-03-01T00:41:07;27.05;;;17.27;;
58731;SDS011;44508;44.626;21.182;2023-03-01T00:43:34;19.13;;;14.38;;
58731;SDS011;44508;44.626;21.182;2023-03-01T00:46:07;19.95;;;14.93;;
58731;SDS011;44508;44.626;21.182;2023-03-01T00:48:34;21.40;;;14.60;;
58731;SDS011;44508;44.626;21.182;2023-03-01T00:51:05;23.23;;;15.43;;
58731;SDS011;44508;44.626;21.182;2023-03-01T00:53:31;24.17;;;14.73;;
58731;SDS011;44508;44.626;21.182;2023-03-01T00:55:57;24.35;;;16.05;;
58731;SDS011;44508;44.626;21.182;2023-03-01T00:58:23;22.50;;;15.25;;
58731;SDS011;44508;44.626;21.182;2023-03-01T01:00:49;19.67;;;14.00;;
58731;SDS011;44508;44.626;21.182;2023-03-01T01:03:17;20.55;;;14.13;;
58731;SDS011;44508;44.626;21.182;2023-03-01T01:05:43;21.60;;;14.70;;
58731;SDS011;44508;44.626;21.182;2023-03-01T01:08:10;21.52;;;13.75;;
58731;SDS011;44508;44.626;21.182;2023-03-01T01:10:36;19.52;;;13.75;;
58731;SDS011;44508;44.626;21.182;2023-03-01T01:13:02;21.60;;;15.10;;
58731;SDS011;44508;44.626;21.182;2023-03-01T01:15:28;23.40;;;16.30;;
58731;SDS011;44508;44.626;21.182;2023-03-01T01:17:54;20.52;;;13.88;;
58731;SDS011;44508;44.626;21.182;2023-03-01T01:20:20;21.33;;;14.23;;
58731;SDS011;44508;44.626;21.182;2023-03-01T01:22:46;21.13;;;15.45;;
58731;SDS011;44508;44.626;21.182;2023-03-01T01:25:12;30.88;;;20.58;;
58731;SDS011;44508;44.626;21.182;2023-03-01T01:27:38;51.03;;;32.75;;
58731;SDS011;44508;44.626;21.182;2023-03-01T01:30:04;57.97;;;35.13;;
58731;SDS011;44508;44.626;21.182;2023-03-01T01:32:31;36.60;;;24.17;;
58731;SDS011;44508;44.626;21.182;2023-03-01T01:34:57;56.63;;;35.22;;
58731;SDS011;44508;44.626;21.182;2023-03-01T01:37:23;58.25;;;37.05;;
58731;SDS011;44508;44.626;21.182;2023-03-01T01:39:56;104.35;;;58.03;;
58731;SDS011;44508;44.626;21.182;2023-03-01T01:42:22;66.00;;;40.58;;
58731;SDS011;44508;44.626;21.182;2023-03-01T01:44:48;74.35;;;41.10;;
58731;SDS011;44508;44.626;21.182;2023-03-01T01:47:15;82.53;;;47.72;;
58731;SDS011;44508;44.626;21.182;2023-03-01T01:57:13;82.93;;;51.90;;
58731;SDS011;44508;44.626;21.182;2023-03-01T01:59:40;62.60;;;40.85;;
58731;SDS011;44508;44.626;21.182;2023-03-01T02:02:08;69.78;;;45.60;;
58731;SDS011;44508;44.626;21.182;2023-03-01T02:04:34;61.67;;;40.90;;
58731;SDS011;44508;44.626;21.182;2023-03-01T02:07:06;62.72;;;39.83;;
58731;SDS011;44508;44.626;21.182;2023-03-01T02:09:35;63.75;;;40.35;;
58731;SDS011;44508;44.626;21.182;2023-03-01T02:12:01;69.15;;;44.45;;
58731;SDS011;44508;44.626;21.182;2023-03-01T02:14:27;64.78;;;42.42;;
58731;SDS011;44508;44.626;21.182;2023-03-01T02:16:53;63.08;;;40.13;;
58731;SDS011;44508;44.626;21.182;2023-03-01T02:19:24;91.93;;;53.75;;
58731;SDS011;44508;44.626;21.182;2023-03-01T02:21:59;88.68;;;53.00;;
58731;SDS011;44508;44.626;21.182;2023-03-01T02:27:33;60.40;;;39.00;;
58731;SDS011;44508;44.626;21.182;2023-03-01T02:30:01;66.57;;;42.58;;
58731;SDS011;44508;44.626;21.182;2023-03-01T02:32:28;55.28;;;39.25;;
58731;SDS011;44508;44.626;21.182;2023-03-01T02:34:54;55.92;;;36.83;;
58731;SDS011;44508;44.626;21.182;2023-03-01T02:37:21;60.03;;;41.20;;
58731;SDS011;44508;44.626;21.182;2023-03-01T02:39:51;54.47;;;38.50;;
58731;SDS011;44508;44.626;21.182;2023-03-01T02:42:30;57.28;;;39.85;;
58731;SDS011;44508;44.626;21.182;2023-03-01T02:44:57;70.03;;;47.22;;
58731;SDS011;44508;44.626;21.182;2023-03-01T02:47:23;80.15;;;53.00;;
58731;SDS011;44508;44.626;21.182;2023-03-01T02:49:49;80.93;;;54.63;;
58731;SDS011;44508;44.626;21.182;2023-03-01T02:55:08;86.82;;;60.17;;
58731;SDS011;44508;44.626;21.182;2023-03-01T02:57:35;90.32;;;60.33;;
58731;SDS011;44508;44.626;21.182;2023-03-01T03:00:03;91.95;;;60.90;;
58731;SDS011;44508;44.626;21.182;2023-03-01T03:02:33;99.93;;;66.03;;
58731;SDS011;44508;44.626;21.182;2023-03-01T03:07:31;78.55;;;52.88;;
58731;SDS011;44508;44.626;21.182;2023-03-01T03:09:58;76.63;;;49.60;;
58731;SDS011;44508;44.626;21.182;2023-03-01T03:12:24;113.10;;;67.97;;
58731;SDS011;44508;44.626;21.182;2023-03-01T03:14:50;82.82;;;53.25;;
58731;SDS011;44508;44.626;21.182;2023-03-01T03:17:16;74.90;;;48.38;;
58731;SDS011;44508;44.626;21.182;2023-03-01T03:19:42;66.13;;;45.33;;
58731;SDS011;44508;44.626;21.182;2023-03-01T03:22:10;73.93;;;50.03;;
58731;SDS011;44508;44.626;21.182;2023-03-01T03:24:36;84.43;;;56.20;;
58731;SDS011;44508;44.626;21.182;2023-03-01T03:27:03;88.95;;;56.33;;
58731;SDS011;44508;44.626;21.182;2023-03-01T03:29:29;72.93;;;50.50;;
58731;SDS011;44508;44.626;21.182;2023-03-01T03:31:55;66.93;;;46.15;;
58731;SDS011;44508;44.626;21.182;2023-03-01T03:34:22;64.35;;;45.35;;
58731;SDS011;44508;44.626;21.182;2023-03-01T03:36:48;72.32;;;45.88;;
58731;SDS011;44508;44.626;21.182;2023-03-01T03:39:14;68.95;;;44.55;;
58731;SDS011;44508;44.626;21.182;2023-03-01T03:41:40;62.55;;;40.63;;
58731;SDS011;44508;44.626;21.182;2023-03-01T03:44:06;52.63;;;35.17;;
58731;SDS011;44508;44.626;21.182;2023-03-01T03:46:32;47.33;;;33.30;;
58731;SDS011;44508;44.626;21.182;2023-03-01T03:48:58;55.47;;;39.00;;
58731;SDS011;44508;44.626;21.182;2023-03-01T03:51:24;58.63;;;39.47;;
58731;SDS011;44508;44.626;21.182;2023-03-01T03:53:50;65.22;;;40.92;;
58731;SDS011;44508;44.626;21.182;2023-03-01T03:56:16;62.85;;;43.90;;
58731;SDS011;44508;44.626;21.182;2023-03-01T03:58:42;64.10;;;42.95;;
58731;SDS011;44508;44.626;21.182;2023-03-01T04:01:08;68.63;;;43.60;;
58731;SDS011;44508;44.626;21.182;2023-03-01T04:03:34;59.22;;;40.28;;
58731;SDS011;44508;44.626;21.182;2023-03-01T04:06:01;36.25;;;24.27;;
58731;SDS011;44508;44.626;21.182;2023-03-01T04:08:27;43.65;;;27.83;;
58731;SDS011;44508;44.626;21.182;2023-03-01T04:10:57;48.45;;;29.55;;
58731;SDS011;44508;44.626;21.182;2023-03-01T04:13:23;36.83;;;24.55;;
58731;SDS011;44508;44.626;21.182;2023-03-01T04:15:50;36.55;;;25.25;;
58731;SDS011;44508;44.626;21.182;2023-03-01T04:18:17;27.00;;;19.05;;
58731;SDS011;44508;44.626;21.182;2023-03-01T04:20:44;17.02;;;11.15;;
58731;SDS011;44508;44.626;21.182;2023-03-01T04:23:16;13.98;;;10.18;;
58731;SDS011;44508;44.626;21.182;2023-03-01T04:25:51;17.63;;;9.03;;
58731;SDS011;44508;44.626;21.182;2023-03-01T04:30:54;13.32;;;9.88;;
58731;SDS011;44508;44.626;21.182;2023-03-01T04:33:20;16.35;;;9.48;;
58731;SDS011;44508;44.626;21.182;2023-03-01T04:35:47;14.57;;;9.38;;
58731;SDS011;44508;44.626;21.182;2023-03-01T04:38:17;13.80;;;9.70;;
58731;SDS011;44508;44.626;21.182;2023-03-01T04:40:43;14.02;;;10.30;;
58731;SDS011;44508;44.626;21.182;2023-03-01T04:43:10;14.07;;;9.13;;
58731;SDS011;44508;44.626;21.182;2023-03-01T04:45:36;11.65;;;8.77;;
58731;SDS011;44508;44.626;21.182;2023-03-01T04:48:03;12.35;;;7.57;;
58731;SDS011;44508;44.626;21.182;2023-03-01T04:50:29;13.82;;;9.43;;
58731;SDS011;44508;44.626;21.182;2023-03-01T04:52:55;12.18;;;8.55;;
58731;SDS011;44508;44.626;21.182;2023-03-01T04:55:27;12.90;;;8.30;;
58731;SDS011;44508;44.626;21.182;2023-03-01T04:57:54;12.80;;;8.98;;
58731;SDS011;44508;44.626;21.182;2023-03-01T05:00:21;10.00;;;7.88;;
58731;SDS011;44508;44.626;21.182;2023-03-01T05:02:51;10.63;;;8.30;;
58731;SDS011;44508;44.626;21.182;2023-03-01T05:05:25;11.23;;;8.50;;
58731;SDS011;44508;44.626;21.182;2023-03-01T05:08:02;11.85;;;7.85;;
58731;SDS011;44508;44.626;21.182;2023-03-01T05:10:29;12.20;;;8.50;;
58731;SDS011;44508;44.626;21.182;2023-03-01T05:12:56;12.55;;;8.20;;
58731;SDS011;44508;44.626;21.182;2023-03-01T05:15:22;11.07;;;8.20;;
58731;SDS011;44508;44.626;21.182;2023-03-01T05:17:50;12.23;;;7.32;;
58731;SDS011;44508;44.626;21.182;2023-03-01T05:20:17;10.18;;;7.93;;
58731;SDS011;44508;44.626;21.182;2023-03-01T05:22:43;12.52;;;8.82;;
58731;SDS011;44508;44.626;21.182;2023-03-01T05:25:09;12.02;;;8.90;;
58731;SDS011;44508;44.626;21.182;2023-03-01T05:27:35;15.45;;;9.50;;
58731;SDS011;44508;44.626;21.182;2023-03-01T05:30:02;14.75;;;10.20;;
58731;SDS011;44508;44.626;21.182;2023-03-01T05:32:39;14.77;;;10.32;;
58731;SDS011;44508;44.626;21.182;2023-03-01T05:35:05;15.45;;;10.65;;
58731;SDS011;44508;44.626;21.182;2023-03-01T05:37:31;16.55;;;11.35;;
58731;SDS011;44508;44.626;21.182;2023-03-01T05:39:57;16.40;;;11.73;;
58731;SDS011;44508;44.626;21.182;2023-03-01T05:42:23;17.95;;;12.27;;
58731;SDS011;44508;44.626;21.182;2023-03-01T05:44:49;18.58;;;12.50;;
58731;SDS011;44508;44.626;21.182;2023-03-01T05:47:15;15.40;;;11.15;;
58731;SDS011;44508;44.626;21.182;2023-03-01T05:49:42;14.93;;;10.02;;
58731;SDS011;44508;44.626;21.182;2023-03-01T05:52:08;16.55;;;11.48;;
58731;SDS011;44508;44.626;21.182;2023-03-01T05:54:34;13.60;;;9.55;;
58731;SDS011;44508;44.626;21.182;2023-03-01T05:57:00;16.70;;;11.70;;
58731;SDS011;44508;44.626;21.182;2023-03-01T05:59:26;9.65;;;7.93;;
58731;SDS011;44508;44.626;21.182;2023-03-01T06:01:52;13.07;;;8.43;;
58731;SDS011;44508;44.626;21.182;2023-03-01T06:04:18;16.85;;;10.55;;
58731;SDS011;44508;44.626;21.182;2023-03-01T06:06:44;21.38;;;11.13;;
58731;SDS011;44508;44.626;21.182;2023-03-01T06:09:10;21.50;;;11.48;;
58731;SDS011;44508;44.626;21.182;2023-03-01T06:11:36;22.65;;;13.40;;
58731;SDS011;44508;44.626;21.182;2023-03-01T06:14:03;23.98;;;13.27;;
58731;SDS011;44508;44.626;21.182;2023-03-01T06:16:29;33.60;;;18.38;;
58731;SDS011;44508;44.626;21.182;2023-03-01T06:18:55;33.67;;;19.80;;
58731;SDS011;44508;44.626;21.182;2023-03-01T06:21:21;34.75;;;19.30;;
58731;SDS011;44508;44.626;21.182;2023-03-01T06:23:47;49.63;;;25.92;;
58731;SDS011;44508;44.626;21.182;2023-03-01T06:26:13;52.30;;;27.65;;
58731;SDS011;44508;44.626;21.182;2023-03-01T06:28:39;46.83;;;24.30;;
58731;SDS011;44508;44.626;21.182;2023-03-01T06:31:05;44.42;;;23.05;;
58731;SDS011;44508;44.626;21.182;2023-03-01T06:33:33;39.75;;;20.27;;
58731;SDS011;44508;44.626;21.182;2023-03-01T06:36:01;37.35;;;20.23;;
58731;SDS011;44508;44.626;21.182;2023-03-01T06:38:27;27.60;;;15.73;;
58731;SDS011;44508;44.626;21.182;2023-03-01T06:40:54;19.23;;;12.23;;
58731;SDS011;44508;44.626;21.182;2023-03-01T06:43:21;21.58;;;12.98;;
58731;SDS011;44508;44.626;21.182;2023-03-01T06:45:48;20.00;;;12.82;;
58731;SDS011;44508;44.626;21.182;2023-03-01T06:48:14;17.13;;;10.30;;
58731;SDS011;44508;44.626;21.182;2023-03-01T06:50:40;18.25;;;11.73;;
58731;SDS011;44508;44.626;21.182;2023-03-01T06:53:06;22.10;;;12.73;;
58731;SDS011;44508;44.626;21.182;2023-03-01T06:55:32;19.80;;;11.70;;
58731;SDS011;44508;44.626;21.182;2023-03-01T06:57:59;15.10;;;10.50;;
58731;SDS011;44508;44.626;21.182;2023-03-01T07:00:26;12.95;;;8.55;;
58731;SDS011;44508;44.626;21.182;2023-03-01T07:02:52;12.15;;;8.38;;
58731;SDS011;44508;44.626;21.182;2023-03-01T07:05:19;15.13;;;9.32;;
58731;SDS011;44508;44.626;21.182;2023-03-01T07:07:45;15.48;;;9.20;;
58731;SDS011;44508;44.626;21.182;2023-03-01T07:10:11;16.55;;;10.07;;
58731;SDS011;44508;44.626;21.182;2023-03-01T07:12:37;19.00;;;11.52;;
58731;SDS011;44508;44.626;21.182;2023-03-01T07:15:03;14.35;;;9.82;;
58731;SDS011;44508;44.626;21.182;2023-03-01T07:17:29;11.18;;;7.93;;
58731;SDS011;44508;44.626;21.182;2023-03-01T07:19:56;13.57;;;8.15;;
58731;SDS011;44508;44.626;21.182;2023-03-01T07:22:22;14.00;;;8.82;;
58731;SDS011;44508;44.626;21.182;2023-03-01T07:24:48;12.77;;;8.25;;
58731;SDS011;44508;44.626;21.182;2023-03-01T07:27:14;12.40;;;8.20;;
58731;SDS011;44508;44.626;21.182;2023-03-01T07:29:40;10.43;;;7.38;;
58731;SDS011;44508;44.626;21.182;2023-03-01T07:32:06;12.73;;;8.13;;
58731;SDS011;44508;44.626;21.182;2023-03-01T07:34:32;12.85;;;8.57;;
58731;SDS011;44508;44.626;21.182;2023-03-01T07:36:58;9.88;;;7.30;;
58731;SDS011;44508;44.626;21.182;2023-03-01T07:39:24;13.07;;;8.63;;
58731;SDS011;44508;44.626;21.182;2023-03-01T07:41:50;16.50;;;9.35;;
58731;SDS011;44508;44.626;21.182;2023-03-01T07:44:17;10.85;;;7.20;;
58731;SDS011;44508;44.626;21.182;2023-03-01T07:46:43;13.35;;;8.57;;
58731;SDS011;44508;44.626;21.182;2023-03-01T07:49:09;13.77;;;8.63;;
58731;SDS011;44508;44.626;21.182;2023-03-01T07:51:36;15.80;;;8.80;;
58731;SDS011;44508;44.626;21.182;2023-03-01T07:54:02;15.98;;;8.60;;
58731;SDS011;44508;44.626;21.182;2023-03-01T07:56:28;15.10;;;10.38;;
58731;SDS011;44508;44.626;21.182;2023-03-01T07:58:54;12.98;;;9.35;;
58731;SDS011;44508;44.626;21.182;2023-03-01T08:01:20;19.70;;;11.15;;
58731;SDS011;44508;44.626;21.182;2023-03-01T08:03:47;12.25;;;9.18;;
58731;SDS011;44508;44.626;21.182;2023-03-01T08:06:14;15.93;;;10.70;;
58731;SDS011;44508;44.626;21.182;2023-03-01T08:08:40;12.95;;;9.50;;
58731;SDS011;44508;44.626;21.182;2023-03-01T08:11:07;10.43;;;7.80;;
58731;SDS011;44508;44.626;21.182;2023-03-01T08:13:33;13.23;;;8.77;;
58731;SDS011;44508;44.626;21.182;2023-03-01T08:16:02;17.52;;;10.95;;
58731;SDS011;44508;44.626;21.182;2023-03-01T08:18:29;11.45;;;6.13;;
58731;SDS011;44508;44.626;21.182;2023-03-01T08:20:55;8.80;;;5.63;;
58731;SDS011;44508;44.626;21.182;2023-03-01T08:23:21;15.88;;;9.68;;
58731;SDS011;44508;44.626;21.182;2023-03-01T08:25:47;14.50;;;8.20;;
58731;SDS011;44508;44.626;21.182;2023-03-01T08:28:13;15.57;;;9.15;;
58731;SDS011;44508;44.626;21.182;2023-03-01T08:30:39;16.13;;;8.60;;
58731;SDS011;44508;44.626;21.182;2023-03-01T08:33:05;15.88;;;7.70;;
58731;SDS011;44508;44.626;21.182;2023-03-01T08:35:31;11.63;;;6.07;;
58731;SDS011;44508;44.626;21.182;2023-03-01T08:37:57;11.55;;;6.70;;
58731;SDS011;44508;44.626;21.182;2023-03-01T08:40:23;14.88;;;7.28;;
58731;SDS011;44508;44.626;21.182;2023-03-01T08:42:49;7.75;;;5.47;;
58731;SDS011;44508;44.626;21.182;2023-03-01T08:45:15;13.25;;;7.65;;
58731;SDS011;44508;44.626;21.182;2023-03-01T08:47:43;9.80;;;5.90;;
58731;SDS011;44508;44.626;21.182;2023-03-01T08:50:10;8.07;;;5.72;;
58731;SDS011;44508;44.626;21.182;2023-03-01T08:52:36;12.43;;;6.75;;
58731;SDS011;44508;44.626;21.182;2023-03-01T08:55:02;13.00;;;7.53;;
58731;SDS011;44508;44.626;21.182;2023-03-01T08:57:28;14.73;;;8.63;;
58731;SDS011;44508;44.626;21.182;2023-03-01T08:59:55;8.38;;;5.82;;
58731;SDS011;44508;44.626;21.182;2023-03-01T09:02:21;17.55;;;8.27;;
58731;SDS011;44508;44.626;21.182;2023-03-01T09:04:47;10.85;;;5.72;;
58731;SDS011;44508;44.626;21.182;2023-03-01T09:07:13;8.90;;;5.32;;
58731;SDS011;44508;44.626;21.182;2023-03-01T09:09:39;15.02;;;6.00;;
58731;SDS011;44508;44.626;21.182;2023-03-01T09:12:06;15.60;;;8.10;;
58731;SDS011;44508;44.626;21.182;2023-03-01T09:14:32;12.43;;;6.13;;
58731;SDS011;44508;44.626;21.182;2023-03-01T09:16:59;12.10;;;7.32;;
58731;SDS011;44508;44.626;21.182;2023-03-01T09:19:27;11.20;;;5.70;;
58731;SDS011;44508;44.626;21.182;2023-03-01T09:21:53;12.63;;;6.63;;
58731;SDS011;44508;44.626;21.182;2023-03-01T09:24:22;20.02;;;6.63;;
58731;SDS011;44508;44.626;21.182;2023-03-01T09:26:48;8.40;;;5.63;;
58731;SDS011;44508;44.626;21.182;2023-03-01T09:29:15;10.07;;;6.60;;
58731;SDS011;44508;44.626;21.182;2023-03-01T09:31:41;7.00;;;4.55;;
58731;SDS011;44508;44.626;21.182;2023-03-01T09:34:08;7.32;;;4.90;;
58731;SDS011;44508;44.626;21.182;2023-03-01T09:36:34;11.15;;;5.55;;
58731;SDS011;44508;44.626;21.182;2023-03-01T09:39:00;9.63;;;5.30;;
58731;SDS011;44508;44.626;21.182;2023-03-01T09:46:46;8.68;;;4.65;;
58731;SDS011;44508;44.626;21.182;2023-03-01T09:49:17;9.20;;;5.75;;
58731;SDS011;44508;44.626;21.182;2023-03-01T09:51:47;6.93;;;4.72;;
58731;SDS011;44508;44.626;21.182;2023-03-01T09:54:16;11.95;;;6.78;;
58731;SDS011;44508;44.626;21.182;2023-03-01T09:59:25;7.93;;;4.88;;
58731;SDS011;44508;44.626;21.182;2023-03-01T10:07:02;11.68;;;7.45;;
58731;SDS011;44508;44.626;21.182;2023-03-01T10:09:34;15.13;;;8.25;;
58731;SDS011;44508;44.626;21.182;2023-03-01T10:12:01;9.52;;;6.50;;
58731;SDS011;44508;44.626;21.182;2023-03-01T10:19:40;7.90;;;5.90;;
58731;SDS011;44508;44.626;21.182;2023-03-01T10:24:39;10.60;;;6.55;;
58731;SDS011;44508;44.626;21.182;2023-03-01T10:27:29;9.68;;;5.65;;
58731;SDS011;44508;44.626;21.182;2023-03-01T10:32:17;14.45;;;7.80;;
58731;SDS011;44508;44.626;21.182;2023-03-01T10:34:44;8.02;;;5.90;;
58731;SDS011;44508;44.626;21.182;2023-03-01T10:37:14;14.32;;;5.95;;
58731;SDS011;44508;44.626;21.182;2023-03-01T10:39:56;6.40;;;4.93;;
58731;SDS011;44508;44.626;21.182;2023-03-01T10:42:27;12.60;;;7.40;;
58731;SDS011;44508;44.626;21.182;2023-03-01T10:44:53;10.13;;;5.43;;
58731;SDS011;44508;44.626;21.182;2023-03-01T10:47:23;9.75;;;5.57;;
58731;SDS011;44508;44.626;21.182;2023-03-01T10:52:20;11.00;;;6.47;;
58731;SDS011;44508;44.626;21.182;2023-03-01T10:54:53;14.15;;;8.48;;
58731;SDS011;44508;44.626;21.182;2023-03-01T10:57:31;10.63;;;7.05;;
58731;SDS011;44508;44.626;21.182;2023-03-01T11:00:02;11.63;;;7.78;;
58731;SDS011;44508;44.626;21.182;2023-03-01T11:02:30;13.98;;;8.90;;
58731;SDS011;44508;44.626;21.182;2023-03-01T11:05:00;13.25;;;9.05;;
58731;SDS011;44508;44.626;21.182;2023-03-01T11:07:26;11.40;;;7.93;;
58731;SDS011;44508;44.626;21.182;2023-03-01T11:09:53;9.77;;;6.35;;
58731;SDS011;44508;44.626;21.182;2023-03-01T11:12:20;8.70;;;6.60;;
58731;SDS011;44508;44.626;21.182;2023-03-01T11:14:50;12.73;;;8.13;;
58731;SDS011;44508;44.626;21.182;2023-03-01T11:17:29;10.98;;;8.68;;
58731;SDS011;44508;44.626;21.182;2023-03-01T11:20:01;11.02;;;7.60;;
58731;SDS011;44508;44.626;21.182;2023-03-01T11:22:29;11.77;;;8.60;;
58731;SDS011;44508;44.626;21.182;2023-03-01T11:24:56;10.70;;;7.80;;
58731;SDS011;44508;44.626;21.182;2023-03-01T11:32:25;12.32;;;8.93;;
58731;SDS011;44508;44.626;21.182;2023-03-01T11:40:16;12.07;;;6.82;;
58731;SDS011;44508;44.626;21.182;2023-03-01T11:42:56;9.77;;;6.03;;
58731;SDS011;44508;44.626;21.182;2023-03-01T11:45:26;11.02;;;6.57;;
58731;SDS011;44508;44.626;21.182;2023-03-01T11:53:12;8.70;;;6.05;;
58731;SDS011;44508;44.626;21.182;2023-03-01T12:14:20;9.02;;;6.00;;
58731;SDS011;44508;44.626;21.182;2023-03-01T12:21:50;8.80;;;5.65;;
